createdAt,value
2022-10-21T00:00:57.837Z,100164.22
2022-10-21T00:03:28.657Z,100162.34
2022-10-21T00:05:56.746Z,100156.47
2022-10-21T00:08:24.751Z,100158.91
2022-10-21T00:10:53.984Z,100159.63
2022-10-21T00:13:22.603Z,100158.81
2022-10-21T00:16:05.599Z,100154.13
2022-10-21T00:18:34.720Z,100136.28
2022-10-21T00:21:09.027Z,100142.97
2022-10-21T00:23:36.573Z,100137.09
2022-10-21T00:26:04.817Z,100136.13
2022-10-21T00:28:32.992Z,100127.38
2022-10-21T00:31:01.018Z,100133.75
2022-10-21T00:33:28.882Z,100131.19
2022-10-21T00:36:02.977Z,100130.31
2022-10-21T00:38:32.024Z,100125.94
2022-10-21T00:40:59.772Z,100118.06
2022-10-21T00:43:28.255Z,100113.88
2022-10-21T00:46:05.236Z,100114.66
2022-10-21T00:48:35.966Z,100105.16
2022-10-21T00:51:16.945Z,100099.28
2022-10-21T00:53:47.329Z,100093.97
2022-10-21T00:56:24.448Z,100102.81
2022-10-21T00:58:55.266Z,100113.78
2022-10-21T01:01:22.919Z,100116.31
2022-10-21T01:03:51.141Z,100116.09
2022-10-21T01:06:21.900Z,100112.19
2022-10-21T01:08:49.910Z,100119.66
2022-10-21T01:11:19.620Z,100128.25
2022-10-21T01:13:49.956Z,100129.94
2022-10-21T01:16:41.219Z,100125.44
2022-10-21T01:19:31.790Z,100131.03
2022-10-21T01:22:36.694Z,100131.91
2022-10-21T01:25:16.304Z,100132.78
2022-10-21T01:28:17.686Z,100131.09
2022-10-21T01:31:01.313Z,100112.59
2022-10-21T01:33:37.462Z,100131.59
2022-10-21T01:36:39.689Z,100127.88
2022-10-21T01:39:22.050Z,100120.63
2022-10-21T01:41:56.658Z,100135.22
2022-10-21T01:44:37.590Z,100127.00
2022-10-21T01:47:32.590Z,100138.53
2022-10-21T01:50:21.496Z,100130.25
2022-10-21T01:52:56.284Z,100114.97
2022-10-21T01:55:28.279Z,100122.88
2022-10-21T01:58:16.359Z,100129.06
2022-10-21T02:00:43.983Z,100129.22
2022-10-21T02:03:16.646Z,100116.00
2022-10-21T02:05:44.190Z,100124.34
2022-10-21T02:08:14.008Z,100118.88
2022-10-21T02:10:46.035Z,100120.84
2022-10-21T02:13:17.874Z,100113.84
2022-10-21T02:16:10.072Z,100135.13
2022-10-21T02:18:37.473Z,100130.41
2022-10-21T02:21:11.426Z,100134.63
2022-10-21T02:23:44.768Z,100141.47
2022-10-21T02:26:12.342Z,100132.56
2022-10-21T02:31:15.817Z,100140.31
2022-10-21T02:33:52.315Z,100148.84
2022-10-21T02:36:48.578Z,100150.00
2022-10-21T02:39:21.197Z,100159.31
2022-10-21T02:41:50.867Z,100148.34
2022-10-21T02:44:18.459Z,100152.44
2022-10-21T02:46:47.491Z,100158.13
2022-10-21T02:49:14.899Z,100136.28
2022-10-21T02:51:43.058Z,100131.69
2022-10-21T02:54:10.497Z,100139.31
2022-10-21T02:56:37.896Z,100148.13
2022-10-21T02:59:05.390Z,100147.44
2022-10-21T03:01:35.030Z,100132.97
2022-10-21T03:04:02.471Z,100144.44
2022-10-21T03:06:29.922Z,100132.44
2022-10-21T03:08:59.958Z,100136.56
2022-10-21T03:11:27.593Z,100130.59
2022-10-21T03:13:54.993Z,100129.53
2022-10-21T03:16:22.463Z,100128.84
2022-10-21T03:18:49.863Z,100126.13
2022-10-21T03:21:17.318Z,100120.00
2022-10-21T03:23:44.777Z,100121.91
2022-10-21T03:26:12.410Z,100130.69
2022-10-21T03:28:39.841Z,100136.00
2022-10-21T03:31:07.379Z,100132.84
2022-10-21T03:33:34.761Z,100139.53
2022-10-21T03:36:02.321Z,100141.19
2022-10-21T03:38:29.839Z,100128.75
2022-10-21T03:40:57.341Z,100136.56
2022-10-21T03:43:24.778Z,100143.31
2022-10-21T03:45:52.284Z,100140.69
2022-10-21T03:48:19.682Z,100138.84
2022-10-21T03:50:47.622Z,100139.81
2022-10-21T03:53:30.883Z,100136.66
2022-10-21T03:56:02.378Z,100132.56
2022-10-21T03:58:29.863Z,100137.97
2022-10-21T04:00:57.332Z,100128.53
2022-10-21T04:03:24.779Z,100130.19
2022-10-21T04:05:52.455Z,100126.19
2022-10-21T04:08:19.957Z,100140.00
2022-10-21T04:10:50.250Z,100145.00
2022-10-21T04:13:17.787Z,100139.81
2022-10-21T04:15:45.863Z,100148.22
2022-10-21T04:18:13.295Z,100161.75
2022-10-21T04:20:40.737Z,100163.41
2022-10-21T04:23:08.259Z,100163.13
2022-10-21T04:25:35.673Z,100162.13
2022-10-21T04:28:03.210Z,100154.88
2022-10-21T04:30:30.608Z,100164.56
2022-10-21T04:32:58.140Z,100157.22
2022-10-21T04:35:25.601Z,100159.75
2022-10-21T04:37:55.454Z,100159.19
2022-10-21T04:40:23.114Z,100170.53
2022-10-21T04:42:53.539Z,100172.63
2022-10-21T04:45:26.058Z,100159.47
2022-10-21T04:47:53.623Z,100170.16
2022-10-21T04:50:23.417Z,100164.09
2022-10-21T04:52:54.956Z,100159.56
2022-10-21T04:55:22.570Z,100147.53
2022-10-21T04:57:50.072Z,100155.50
2022-10-21T05:00:17.573Z,100166.03
2022-10-21T05:02:45.032Z,100158.63
2022-10-21T05:05:12.451Z,100163.91
2022-10-21T05:07:40.091Z,100165.66
2022-10-21T05:10:07.865Z,100166.16
2022-10-21T05:15:08.357Z,100159.00
2022-10-21T05:17:37.033Z,100162.66
2022-10-21T05:20:05.271Z,100165.28
2022-10-21T05:22:33.262Z,100168.81
2022-10-21T05:25:00.818Z,100157.81
2022-10-21T05:27:28.629Z,100166.25
2022-10-21T05:29:58.503Z,100156.94
2022-10-21T05:32:27.398Z,100161.16
2022-10-21T05:34:55.100Z,100167.25
2022-10-21T05:37:22.675Z,100164.81
2022-10-21T05:39:50.187Z,100169.91
2022-10-21T05:42:17.643Z,100174.91
2022-10-21T05:44:45.169Z,100174.22
2022-10-21T05:47:12.606Z,100186.06
2022-10-21T05:49:40.061Z,100178.50
2022-10-21T05:52:07.562Z,100185.63
2022-10-21T05:54:35.046Z,100192.72
2022-10-21T05:57:02.647Z,100201.53
2022-10-21T05:59:30.105Z,100195.66
2022-10-21T06:01:57.651Z,100195.75
2022-10-21T06:04:25.259Z,100178.59
2022-10-21T06:06:52.778Z,100185.84
2022-10-21T06:09:22.975Z,100200.03
2022-10-21T06:11:50.654Z,100193.56
2022-10-21T06:14:19.858Z,100190.09
2022-10-21T06:16:47.354Z,100192.16
2022-10-21T06:19:17.581Z,100190.59
2022-10-21T06:21:45.061Z,100195.81
2022-10-21T06:24:12.640Z,100201.47
2022-10-21T06:26:40.073Z,100202.44
2022-10-21T06:29:10.267Z,100206.97
2022-10-21T06:31:37.864Z,100205.69
2022-10-21T06:34:07.573Z,100206.81
2022-10-21T06:36:35.149Z,100201.88
2022-10-21T06:39:06.327Z,100203.63
2022-10-21T06:41:34.419Z,100193.81
2022-10-21T06:44:02.208Z,100197.31
2022-10-21T06:46:29.701Z,100208.50
2022-10-21T06:48:57.345Z,100206.34
2022-10-21T06:51:25.064Z,100205.28
2022-10-21T06:54:00.236Z,100208.44
2022-10-21T06:56:28.184Z,100213.69
2022-10-21T06:58:58.081Z,100202.41
2022-10-21T07:01:48.008Z,100202.84
2022-10-21T07:04:20.845Z,100198.91
2022-10-21T07:06:49.227Z,100195.47
2022-10-21T07:09:17.310Z,100193.69
2022-10-21T07:11:50.306Z,100185.50
2022-10-21T07:14:17.698Z,100177.28
2022-10-21T07:16:45.471Z,100188.66
2022-10-21T07:19:12.954Z,100189.78
2022-10-21T07:21:40.550Z,100185.47
2022-10-21T07:24:08.234Z,100179.41
2022-10-21T07:26:38.522Z,100184.94
2022-10-21T07:29:06.309Z,100186.97
2022-10-21T07:31:36.168Z,100184.91
2022-10-21T07:36:43.958Z,100186.78
2022-10-21T07:39:18.164Z,100191.38
2022-10-21T07:41:49.372Z,100187.28
2022-10-21T07:44:20.731Z,100180.69
2022-10-21T07:46:49.562Z,100190.84
2022-10-21T07:49:20.916Z,100188.84
2022-10-21T07:51:50.542Z,100193.34
2022-10-21T07:54:19.118Z,100197.19
2022-10-21T07:56:50.337Z,100204.63
2022-10-21T07:59:21.874Z,100205.16
2022-10-21T08:04:25.106Z,100201.50
2022-10-21T08:06:52.658Z,100194.22
2022-10-21T08:09:20.213Z,100207.88
2022-10-21T08:11:48.057Z,100197.31
2022-10-21T08:14:15.842Z,100204.84
2022-10-21T08:16:43.319Z,100201.41
2022-10-21T08:19:18.565Z,100205.00
2022-10-21T08:21:48.313Z,100209.84
2022-10-21T08:24:16.248Z,100198.50
2022-10-21T08:26:43.673Z,100207.38
2022-10-21T08:29:11.087Z,100194.41
2022-10-21T08:31:39.348Z,100202.28
2022-10-21T08:34:06.925Z,100199.88
2022-10-21T10:39:39.126Z,100175.09
2022-10-21T10:42:26.157Z,100159.34
2022-10-21T10:45:27.319Z,100163.22
2022-10-21T10:47:57.847Z,100153.78
2022-10-21T10:50:43.463Z,100153.84
2022-10-21T10:53:21.439Z,100155.50
2022-10-21T10:55:57.250Z,100143.97
2022-10-21T10:58:28.937Z,100142.16
2022-10-21T11:01:01.150Z,100139.00
2022-10-21T11:03:46.429Z,100151.25
2022-10-21T11:06:17.496Z,100138.59
2022-10-21T11:08:53.197Z,100137.91
2022-10-21T11:11:28.866Z,100150.75
2022-10-21T11:13:57.608Z,100149.59
2022-10-21T11:17:07.853Z,100141.09
2022-10-21T11:19:48.960Z,100157.56
2022-10-21T11:22:36.393Z,100156.75
2022-10-21T11:25:22.396Z,100149.84
2022-10-21T11:27:49.854Z,100148.13
2022-10-21T11:30:22.801Z,100146.09
2022-10-21T11:33:17.675Z,100151.22
2022-10-21T11:36:12.305Z,100146.97
2022-10-21T11:38:46.152Z,100146.81
2022-10-21T11:41:31.421Z,100141.63
2022-10-21T11:44:29.362Z,100137.09
2022-10-21T11:47:38.355Z,100125.81
2022-10-21T11:53:18.380Z,100123.03
2022-10-21T11:56:00.666Z,100130.06
2022-10-21T11:58:48.687Z,100127.50
2022-10-21T12:01:24.222Z,100121.78
2022-10-21T12:04:14.774Z,100124.16
2022-10-21T12:07:02.509Z,100131.59
2022-10-21T12:10:27.494Z,100129.34
2022-10-21T12:13:02.916Z,100121.56
2022-10-21T12:15:41.421Z,100127.19
2022-10-21T12:18:15.856Z,100127.72
2022-10-21T12:20:47.829Z,100115.91
2022-10-21T12:23:19.435Z,100128.59
2022-10-21T12:26:05.321Z,100125.84
2022-10-21T12:28:41.172Z,100117.69
2022-10-21T12:31:23.836Z,100120.53
2022-10-21T12:33:51.998Z,100106.16
2022-10-21T12:36:25.880Z,100117.03
2022-10-21T12:38:55.770Z,100114.41
2022-10-21T12:41:35.216Z,100107.66
2022-10-21T12:44:05.347Z,100112.56
2022-10-21T12:46:40.109Z,100104.09
2022-10-21T12:49:10.866Z,100104.91
2022-10-21T12:51:39.457Z,100106.47
2022-10-21T12:54:20.369Z,100096.00
2022-10-21T12:56:50.573Z,100104.47
2022-10-21T12:59:42.322Z,100106.31
2022-10-21T13:02:24.791Z,100105.84
2022-10-21T13:04:55.196Z,100112.41
2022-10-21T13:07:33.308Z,100107.75
2022-10-21T13:10:00.803Z,100112.00
2022-10-21T13:12:30.962Z,100111.13
2022-10-21T13:15:23.095Z,100108.00
2022-10-21T13:17:54.725Z,100108.44
2022-10-21T13:20:22.293Z,100105.75
2022-10-21T13:23:03.271Z,100102.25
2022-10-21T13:25:36.312Z,100101.44
2022-10-21T13:28:15.044Z,100104.13
2022-10-21T13:30:48.557Z,100106.34
2022-10-21T13:33:52.121Z,100105.69
2022-10-21T13:39:09.144Z,100114.25
2022-10-21T13:41:36.912Z,100121.78
2022-10-21T13:44:07.371Z,100112.66
2022-10-21T13:46:39.147Z,100129.94
2022-10-21T13:49:33.552Z,100129.47
2022-10-21T13:52:01.110Z,100125.34
2022-10-21T13:54:35.665Z,100130.47
2022-10-21T13:57:09.210Z,100136.25
2022-10-21T13:59:37.136Z,100136.72
2022-10-21T14:02:05.374Z,100141.81
2022-10-21T14:04:39.783Z,100144.31
2022-10-21T14:07:16.593Z,100146.94
2022-10-21T14:09:55.449Z,100154.75
2022-10-21T14:12:33.981Z,100156.44
2022-10-21T14:15:36.123Z,100157.66
2022-10-21T14:18:05.331Z,100161.41
2022-10-21T14:20:38.270Z,100159.72
2022-10-21T14:23:08.674Z,100167.41
2022-10-21T14:25:36.321Z,100164.91
2022-10-21T14:28:06.634Z,100167.31
2022-10-21T14:30:37.233Z,100163.97
2022-10-21T14:33:08.562Z,100160.53
2022-10-21T14:35:36.227Z,100159.25
2022-10-21T14:38:06.893Z,100152.09
2022-10-21T14:40:42.109Z,100161.88
2022-10-21T14:43:12.342Z,100171.72
2022-10-21T14:45:46.623Z,100165.00
2022-10-21T14:48:30.737Z,100165.25
2022-10-21T14:51:01.369Z,100147.56
2022-10-21T14:53:33.440Z,100166.81
2022-10-21T14:56:03.515Z,100157.16
2022-10-21T14:58:36.921Z,100158.47
2022-10-21T15:01:12.392Z,100156.84
2022-10-21T15:03:47.310Z,100148.63
2022-10-21T15:06:18.490Z,100148.84
2022-10-21T15:08:59.216Z,100156.31
2022-10-21T15:11:29.897Z,100148.38
2022-10-21T15:14:21.982Z,100158.88
2022-10-21T15:16:58.221Z,100156.72
2022-10-21T15:19:40.172Z,100170.38
2022-10-21T15:22:18.707Z,100177.31
2022-10-21T15:24:49.185Z,100173.53
2022-10-21T15:27:28.534Z,100174.69
2022-10-21T15:29:56.869Z,100174.69
2022-10-21T15:32:30.446Z,100178.19
2022-10-21T15:34:58.957Z,100181.63
2022-10-21T15:37:26.604Z,100174.41
2022-10-21T15:39:54.082Z,100175.72
2022-10-21T15:42:21.716Z,100174.69
2022-10-21T15:44:52.002Z,100186.94
2022-10-21T15:47:24.190Z,100179.16
2022-10-21T15:49:51.805Z,100183.38
2022-10-21T15:52:19.411Z,100180.81
2022-10-21T15:54:47.059Z,100175.47
2022-10-21T15:57:22.127Z,100181.97
2022-10-21T15:59:52.109Z,100177.25
2022-10-21T16:02:19.753Z,100178.47
2022-10-21T16:04:47.291Z,100164.19
2022-10-21T16:07:22.338Z,100186.59
2022-10-21T16:09:50.108Z,100177.78
2022-10-21T16:12:20.852Z,100180.09
2022-10-21T16:14:48.479Z,100175.53
2022-10-21T16:17:16.112Z,100189.44
2022-10-21T16:19:43.821Z,100184.06
2022-10-21T16:22:14.589Z,100174.94
2022-10-21T16:24:42.444Z,100190.44
2022-10-21T16:27:12.763Z,100192.38
2022-10-21T16:29:40.686Z,100190.69
2022-10-21T16:32:13.673Z,100182.94
2022-10-21T16:34:43.453Z,100173.81
2022-10-21T16:37:24.029Z,100193.03
2022-10-21T16:39:51.930Z,100188.03
2022-10-21T16:42:21.929Z,100188.81
2022-10-21T16:44:50.705Z,100192.97
2022-10-21T16:47:20.784Z,100199.84
2022-10-21T16:49:53.196Z,100193.06
2022-10-21T16:52:21.838Z,100193.06
2022-10-21T16:54:50.574Z,100188.09
2022-10-21T16:57:18.325Z,100185.47
2022-10-21T16:59:46.014Z,100183.78
2022-10-21T17:02:20.184Z,100188.22
2022-10-21T17:04:50.107Z,100174.22
2022-10-21T17:07:20.039Z,100175.69
2022-10-21T17:09:50.245Z,100181.09
2022-10-21T17:12:17.751Z,100188.03
2022-10-21T17:14:45.290Z,100182.03
2022-10-21T17:17:15.142Z,100197.72
2022-10-21T17:19:42.703Z,100193.41
2022-10-21T17:22:16.987Z,100190.66
2022-10-21T17:24:46.118Z,100186.19
2022-10-21T17:27:18.726Z,100188.22
2022-10-21T17:29:47.359Z,100175.09
2022-10-21T17:32:14.967Z,100176.84
2022-10-21T17:34:42.656Z,100177.47
2022-10-21T17:37:12.012Z,100167.16
2022-10-21T17:39:49.840Z,100163.66
2022-10-21T17:42:17.483Z,100150.50
2022-10-21T17:44:47.394Z,100165.94
2022-10-21T17:47:15.750Z,100164.16
2022-10-21T17:49:45.589Z,100171.84
2022-10-21T17:52:13.166Z,100169.28
2022-10-21T17:54:40.633Z,100166.72
2022-10-21T17:57:08.254Z,100165.94
2022-10-21T17:59:38.199Z,100164.16
2022-10-21T18:02:09.087Z,100164.97
2022-10-21T18:04:37.487Z,100171.91
2022-10-21T18:07:08.707Z,100168.47
2022-10-21T18:09:37.572Z,100172.56
2022-10-21T18:12:09.533Z,100174.91
2022-10-21T18:14:40.223Z,100172.28
2022-10-21T18:17:08.628Z,100183.38
2022-10-21T18:19:38.596Z,100172.13
2022-10-21T18:22:06.259Z,100184.44
2022-10-21T18:24:36.525Z,100177.75
2022-10-21T18:27:05.420Z,100176.88
2022-10-21T18:29:34.165Z,100187.34
2022-10-21T18:32:13.828Z,100186.38
2022-10-21T18:34:51.676Z,100189.72
2022-10-21T18:37:20.006Z,100188.03
2022-10-21T18:39:47.495Z,100198.47
2022-10-21T18:42:15.114Z,100184.59
2022-10-21T18:44:45.159Z,100182.94
2022-10-21T18:47:12.743Z,100187.59
2022-10-21T18:49:40.720Z,100201.59
2022-10-21T18:52:08.429Z,100194.66
2022-10-21T18:54:35.892Z,100206.09
2022-10-21T18:57:05.743Z,100204.25
2022-10-21T18:59:33.246Z,100203.63
2022-10-21T19:02:00.819Z,100204.31
2022-10-21T19:04:28.318Z,100192.97
2022-10-21T19:06:58.073Z,100191.09
2022-10-21T19:09:26.722Z,100201.34
2022-10-21T19:11:54.310Z,100209.28
2022-10-21T19:14:21.910Z,100218.63
2022-10-21T19:16:49.399Z,100215.25
2022-10-21T19:19:17.468Z,100212.63
2022-10-21T19:21:45.049Z,100210.88
2022-10-21T19:24:12.919Z,100209.19
2022-10-21T19:26:42.761Z,100211.81
2022-10-21T19:29:16.726Z,100203.88
2022-10-21T19:31:50.898Z,100206.44
2022-10-21T19:34:23.718Z,100214.53
2022-10-21T19:36:51.266Z,100219.66
2022-10-21T19:39:19.549Z,100218.88
2022-10-21T19:41:47.462Z,100217.97
2022-10-21T19:44:15.191Z,100222.03
2022-10-21T19:46:43.047Z,100222.66
2022-10-21T19:49:14.186Z,100229.34
2022-10-21T19:51:41.801Z,100232.28
2022-10-21T19:54:13.948Z,100239.13
2022-10-21T19:56:44.116Z,100238.34
2022-10-21T19:59:14.713Z,100234.75
2022-10-21T20:01:42.293Z,100238.09
2022-10-21T20:04:12.855Z,100230.94
2022-10-21T20:06:41.034Z,100237.97
2022-10-21T20:09:12.633Z,100233.66
2022-10-21T20:11:40.604Z,100239.78
2022-10-21T20:14:08.292Z,100234.47
2022-10-21T20:16:38.828Z,100231.47
2022-10-21T20:19:10.311Z,100245.13
2022-10-21T20:21:41.873Z,100234.22
2022-10-21T20:24:15.422Z,100240.00
2022-10-21T20:26:44.642Z,100247.59
2022-10-21T20:29:13.326Z,100245.84
2022-10-21T20:31:40.845Z,100242.41
2022-10-21T20:34:08.364Z,100243.13
2022-10-21T20:36:38.612Z,100244.00
2022-10-21T20:39:06.181Z,100250.78
2022-10-21T20:41:37.339Z,100244.78
2022-10-21T20:44:09.707Z,100244.66
2022-10-21T20:46:37.568Z,100248.03
2022-10-21T20:49:06.914Z,100243.44
2022-10-21T20:51:36.248Z,100240.88
2022-10-21T20:54:07.273Z,100249.53
2022-10-21T20:56:37.143Z,100243.63
2022-10-21T20:59:06.131Z,100241.25
2022-10-21T21:01:36.323Z,100255.09
2022-10-21T21:04:09.601Z,100253.41
2022-10-21T21:06:39.850Z,100247.84
2022-10-21T21:09:29.371Z,100248.72
2022-10-21T21:14:25.027Z,100241.88
2022-10-21T21:16:52.472Z,100243.88
2022-10-21T21:19:27.484Z,100242.03
2022-10-21T21:21:55.010Z,100252.69
2022-10-21T21:24:22.507Z,100245.03
2022-10-21T21:26:52.255Z,100246.78
2022-10-21T21:29:19.784Z,100245.75
2022-10-21T21:31:47.220Z,100248.56
2022-10-21T21:34:14.922Z,100238.09
2022-10-21T21:36:44.609Z,100254.66
2022-10-21T21:41:45.761Z,100255.25
2022-10-21T21:44:13.201Z,100254.22
2022-10-21T21:46:40.777Z,100259.66
2022-10-21T21:49:08.286Z,100269.78
2022-10-21T21:51:36.996Z,100268.91
2022-10-21T21:54:08.409Z,100263.44
2022-10-21T21:56:38.775Z,100260.28
2022-10-21T21:59:06.405Z,100261.25
2022-10-21T22:01:34.124Z,100265.47
2022-10-21T22:04:02.138Z,100254.22
2022-10-21T22:06:36.565Z,100258.59
2022-10-21T22:09:10.215Z,100257.09
2022-10-21T22:11:38.643Z,100251.91
2022-10-21T22:14:06.209Z,100245.91
2022-10-21T22:16:33.685Z,100257.38
2022-10-21T22:19:01.721Z,100250.44
2022-10-21T22:21:31.677Z,100261.88
2022-10-21T22:24:01.493Z,100252.25
2022-10-21T22:26:30.084Z,100264.59
2022-10-21T22:28:57.708Z,100265.47
2022-10-21T22:31:29.295Z,100260.22
2022-10-21T22:34:02.139Z,100263.09
2022-10-21T22:36:30.238Z,100256.84
2022-10-21T22:38:58.173Z,100263.00
2022-10-21T22:41:28.453Z,100264.53
2022-10-21T22:43:56.609Z,100271.66
2022-10-21T22:46:33.903Z,100275.00
2022-10-21T22:49:10.540Z,100275.09
2022-10-21T22:51:38.109Z,100271.47
2022-10-21T22:54:11.549Z,100269.88
2022-10-21T22:56:46.975Z,100272.44
2022-10-21T22:59:17.059Z,100282.06
2022-10-21T23:01:47.106Z,100273.59
2022-10-21T23:04:14.622Z,100277.22
2022-10-21T23:06:44.595Z,100275.53
2022-10-21T23:09:12.141Z,100268.66
2022-10-21T23:11:39.757Z,100261.78
2022-10-21T23:14:09.525Z,100254.13
2022-10-21T23:16:37.556Z,100258.63
2022-10-21T23:19:07.404Z,100266.28
2022-10-21T23:21:35.989Z,100267.16
2022-10-21T23:24:06.873Z,100264.44
2022-10-21T23:26:36.845Z,100268.75
2022-10-21T23:29:07.081Z,100256.78
2022-10-21T23:31:34.598Z,100263.72
2022-10-21T23:34:02.956Z,100248.03
2022-10-21T23:36:32.697Z,100255.19
2022-10-21T23:39:06.532Z,100257.66
2022-10-21T23:41:34.142Z,100256.88
2022-10-21T23:44:01.619Z,100260.03
2022-10-21T23:46:29.263Z,100257.47
2022-10-21T23:48:56.702Z,100245.22
2022-10-21T23:51:34.448Z,100253.06
2022-10-21T23:54:08.999Z,100240.03
2022-10-21T23:56:36.491Z,100237.38
2022-10-21T23:59:11.610Z,100239.34
